Tommy Cenac — WDJ7482 — position and weather

sailwx.info

Track history (hours):
 
Tides and Currents Weather Stations Pressure Air Temp Water Temp Dewpoint Dewpoint Depression Visibility Wind Speed Wind Dir Waves Ship Positions

Tommy Cenac

Owner: Cenac Marine Services, LLC, Houma, LA. More information available from US FCC via Universal Licensing System and Coast Guard Vessel Documentation Center.

Last reported at 2017-Sep-30 02:00 UTC. Time now 2017-Oct-23 06:03 UTC.
Position N 32°17' W 090°57'.
Warning: this ship's position is 23 days out of date.

Length 25 m; draft 3.3 m.

Type: Ship (hazmat cat A). MMSI: 368007140.

Date/timePositionNaut miles runAvg speedWind from/ knotsBaromVisibWave heightAir tempDewpointWater temp
2017-Sep-30 02:00N 32°17' W 090°57'3 5.5
2017-Sep-30 01:30N 32°14' W 090°59'3 6.1
2017-Sep-30 01:00N 32°11' W 090°60'3 5.7
2017-Sep-30 00:29N 32°09' W 091°00'2 4.9
2017-Sep-30 00:00N 32°07' W 091°03'3 5.5
2017-Sep-29 23:29N 32°08' W 091°06'7 4.9
2017-Sep-29 22:07N 32°01' W 091°04'1 3.0
2017-Sep-29 21:55N 32°01' W 091°05'  
2017-Sep-26 14:13N 29°38' W 090°21'2 7.3
2017-Sep-26 14:00N 29°36' W 090°22'3 6.1
2017-Sep-26 13:30N 29°34' W 090°23'3 6.8
2017-Sep-26 13:00N 29°33' W 090°27'4 7.4
2017-Sep-26 12:30N 29°34' W 090°32'4 7.4
2017-Sep-26 12:00N 29°35' W 090°36'3 5.0
2017-Sep-26 11:30N 29°35' W 090°38'4 7.1
2017-Sep-26 11:00N 29°37' W 090°42'0 0.8
2017-Sep-26 10:30N 29°37' W 090°43'0 0.0
2017-Sep-26 10:00N 29°37' W 090°43'0 0.0
2017-Sep-26 09:30N 29°37' W 090°43'0 0.0
2017-Sep-26 09:00N 29°37' W 090°43'0 0.0
2017-Sep-26 08:30N 29°37' W 090°43'0 0.0
2017-Sep-26 08:00N 29°37' W 090°43'0 0.0
2017-Sep-26 07:30N 29°37' W 090°43'0 0.0
2017-Sep-26 07:00N 29°37' W 090°43'0 0.0
2017-Sep-26 06:30N 29°37' W 090°43'0 0.0
2017-Sep-26 06:00N 29°37' W 090°43'0 0.0
2017-Sep-26 05:30N 29°37' W 090°43'0 0.0
2017-Sep-26 05:00N 29°37' W 090°43'0 0.0
2017-Sep-26 04:30N 29°37' W 090°43'0 0.0
2017-Sep-26 04:00N 29°37' W 090°43'0 0.0
2017-Sep-26 03:30N 29°37' W 090°43'0 0.0
2017-Sep-26 03:00N 29°37' W 090°43'0 0.0
2017-Sep-26 02:30N 29°37' W 090°43'0 0.0
2017-Sep-26 02:00N 29°37' W 090°43'0 0.0
2017-Sep-26 01:30N 29°37' W 090°43'0 0.0
2017-Sep-26 01:00N 29°37' W 090°43'0 0.0
2017-Sep-26 00:30N 29°37' W 090°43'0 0.0
2017-Sep-26 00:00N 29°37' W 090°43'0 0.0
2017-Sep-25 23:30N 29°37' W 090°43'0 0.0
2017-Sep-25 23:00N 29°37' W 090°43'0 0.0
2017-Sep-25 22:30N 29°37' W 090°43'0 0.0
2017-Sep-25 22:00N 29°37' W 090°43'0 0.0
2017-Sep-25 21:30N 29°37' W 090°43'0 0.0
2017-Sep-25 21:00N 29°37' W 090°43'0 0.0
2017-Sep-25 20:30N 29°37' W 090°43'0 0.0
2017-Sep-25 20:00N 29°37' W 090°43'0 0.0
2017-Sep-25 19:30N 29°37' W 090°43'0 0.0
2017-Sep-25 19:00N 29°37' W 090°43'0 0.0
2017-Sep-25 18:30N 29°37' W 090°43'0 0.0
2017-Sep-25 18:00N 29°37' W 090°43'0 0.0
2017-Sep-25 17:30N 29°37' W 090°43'0 0.0
2017-Sep-25 17:00N 29°37' W 090°43'0 0.0
2017-Sep-25 16:30N 29°37' W 090°43'0 0.0
2017-Sep-25 16:00N 29°37' W 090°43'0 0.0
2017-Sep-25 15:30N 29°37' W 090°43'0 0.0
2017-Sep-25 15:00N 29°37' W 090°43'0 0.0
2017-Sep-25 14:30N 29°37' W 090°43'0 0.0
2017-Sep-25 14:00N 29°37' W 090°43'0 0.0
2017-Sep-25 13:30N 29°37' W 090°43'0 0.0
2017-Sep-25 13:00N 29°37' W 090°43'0 0.0
2017-Sep-25 12:30N 29°37' W 090°43'0 0.0
2017-Sep-25 12:00N 29°37' W 090°43'0 0.0
2017-Sep-25 11:30N 29°37' W 090°43'0 0.0
2017-Sep-25 11:00N 29°37' W 090°43'0 0.0
2017-Sep-25 10:30N 29°37' W 090°43'0 0.0
2017-Sep-25 10:00N 29°37' W 090°43'0 0.0
2017-Sep-25 09:30N 29°37' W 090°43'0 0.0
2017-Sep-25 09:00N 29°37' W 090°43'0 0.0
2017-Sep-25 08:30N 29°37' W 090°43'0 0.0
2017-Sep-25 08:00N 29°37' W 090°43'0 0.0
2017-Sep-25 07:30N 29°37' W 090°43'0 0.0
2017-Sep-25 07:00N 29°37' W 090°43'0 0.0
2017-Sep-25 06:30N 29°37' W 090°43'0 0.0
2017-Sep-25 06:00N 29°37' W 090°43'0 0.0
2017-Sep-25 05:30N 29°37' W 090°43'0 0.0
2017-Sep-25 05:00N 29°37' W 090°43'0 0.0
2017-Sep-25 04:30N 29°37' W 090°43'0 0.0
2017-Sep-25 04:00N 29°37' W 090°43'0 0.0
2017-Sep-25 03:30N 29°37' W 090°43'0 0.0
2017-Sep-25 03:00N 29°37' W 090°43'0 0.0
2017-Sep-25 02:30N 29°37' W 090°43'0 0.0
2017-Sep-25 02:00N 29°37' W 090°43'0 0.0
2017-Sep-25 01:30N 29°37' W 090°43'0 0.0
2017-Sep-25 01:00N 29°37' W 090°43'0 0.0
2017-Sep-25 00:30N 29°37' W 090°43'0 0.0
2017-Sep-25 00:00N 29°37' W 090°43'0 0.0
2017-Sep-24 23:30N 29°37' W 090°43'0 0.0
2017-Sep-24 23:00N 29°37' W 090°43'0 0.0
2017-Sep-24 22:30N 29°37' W 090°43'0 0.0
2017-Sep-24 22:00N 29°37' W 090°43'0 0.0
2017-Sep-24 21:30N 29°37' W 090°43'0 0.0
2017-Sep-24 21:00N 29°37' W 090°43'0 0.0
2017-Sep-24 20:30N 29°37' W 090°43'0 0.0
2017-Sep-24 20:00N 29°37' W 090°43'0 0.0
2017-Sep-24 19:31N 29°37' W 090°43'0 0.0
2017-Sep-24 19:00N 29°37' W 090°43'0 0.0
2017-Sep-24 18:30N 29°37' W 090°43'0 0.0
2017-Sep-24 18:00N 29°37' W 090°43'0 0.0
2017-Sep-24 17:30N 29°37' W 090°43'0 0.0
2017-Sep-24 17:00N 29°37' W 090°43'0 0.0
2017-Sep-24 16:30N 29°37' W 090°43'0 0.0
2017-Sep-24 16:00N 29°37' W 090°43'0 0.0
2017-Sep-24 15:31N 29°37' W 090°43'0 0.0
2017-Sep-24 15:00N 29°37' W 090°43'0 0.0
2017-Sep-24 14:30N 29°37' W 090°43'0 0.0
2017-Sep-24 14:00N 29°37' W 090°43'0 0.0
2017-Sep-24 13:30N 29°37' W 090°43'0 0.0
2017-Sep-24 13:00N 29°37' W 090°43'0 0.0
2017-Sep-24 12:30N 29°37' W 090°43'0 0.0
2017-Sep-24 12:00N 29°37' W 090°43'0 0.0
2017-Sep-24 11:30N 29°37' W 090°43'0 0.0
2017-Sep-24 11:00N 29°37' W 090°43'0 0.0
2017-Sep-24 10:30N 29°37' W 090°43'0 0.0
2017-Sep-24 10:00N 29°37' W 090°43'0 0.0
2017-Sep-24 09:30N 29°37' W 090°43'0 0.0
2017-Sep-24 09:00N 29°37' W 090°43'0 0.0
2017-Sep-24 08:30N 29°37' W 090°43'0 0.0
2017-Sep-24 08:00N 29°37' W 090°43'0 0.0
2017-Sep-24 07:30N 29°37' W 090°43'0 0.0
2017-Sep-24 07:00N 29°37' W 090°43'0 0.0
2017-Sep-24 06:30N 29°37' W 090°43'0 0.0
2017-Sep-24 06:00N 29°37' W 090°43'0 0.0
2017-Sep-24 05:30N 29°37' W 090°43'0 0.0
2017-Sep-24 05:00N 29°37' W 090°43'0 0.0
2017-Sep-24 04:30N 29°37' W 090°43'0 0.0
2017-Sep-24 04:00N 29°37' W 090°43'0 0.0
2017-Sep-24 03:30N 29°37' W 090°43'0 0.0
2017-Sep-24 03:00N 29°37' W 090°43'0 0.0
2017-Sep-24 02:30N 29°37' W 090°43'0 0.0
2017-Sep-24 02:00N 29°37' W 090°43'0 0.0
2017-Sep-24 01:30N 29°37' W 090°43'0 0.0
2017-Sep-24 01:00N 29°37' W 090°43'0 0.0
2017-Sep-24 00:30N 29°37' W 090°43'0 0.0
2017-Sep-24 00:00N 29°37' W 090°43'0 0.0
2017-Sep-23 23:30N 29°37' W 090°43'0 0.0
2017-Sep-23 23:00N 29°37' W 090°43'0 0.0
2017-Sep-23 22:30N 29°37' W 090°43'0 0.0
2017-Sep-23 22:00N 29°37' W 090°43'0 0.0
2017-Sep-23 21:30N 29°37' W 090°43'0 0.0
2017-Sep-23 21:00N 29°37' W 090°43'0 0.0
2017-Sep-23 20:30N 29°37' W 090°43'0 0.0
2017-Sep-23 20:00N 29°37' W 090°43'0 0.0
2017-Sep-21 21:29N 29°37' W 090°43'0 0.0
2017-Sep-21 21:00N 29°37' W 090°43'0 0.0
2017-Sep-21 20:30N 29°37' W 090°43'0 0.0
2017-Sep-21 20:00N 29°37' W 090°43'0 0.0
2017-Sep-21 19:30N 29°37' W 090°43'0 0.0
2017-Sep-21 19:00N 29°37' W 090°43'0 0.0
2017-Sep-21 18:30N 29°37' W 090°43'0 0.0
2017-Sep-21 18:00N 29°37' W 090°43'0 0.0
2017-Sep-21 17:30N 29°37' W 090°43'0 0.0
2017-Sep-21 17:00N 29°37' W 090°43'0 0.0
2017-Sep-21 16:30N 29°37' W 090°43'0 0.0
2017-Sep-21 16:00N 29°37' W 090°43'0 0.0
2017-Sep-21 15:30N 29°37' W 090°43'0 0.0
2017-Sep-21 15:00N 29°37' W 090°43'0 0.0
2017-Sep-21 14:30N 29°37' W 090°43'0 0.0
2017-Sep-21 14:00N 29°37' W 090°43'0 0.0
2017-Sep-21 13:30N 29°37' W 090°43'0 0.0
2017-Sep-21 13:00N 29°37' W 090°43'0 0.0
2017-Sep-21 12:30N 29°37' W 090°43'0 0.0
2017-Sep-21 12:00N 29°37' W 090°43'0 0.0
2017-Sep-21 11:30N 29°37' W 090°43'0 0.0
2017-Sep-21 11:00N 29°37' W 090°43'0 0.0
2017-Sep-21 10:30N 29°37' W 090°43'0 0.0
2017-Sep-21 10:00N 29°37' W 090°43'0 0.0
2017-Sep-21 09:30N 29°37' W 090°43'0 0.0
2017-Sep-21 09:00N 29°37' W 090°43'0 0.0
2017-Sep-21 08:30N 29°37' W 090°43'0 0.0
2017-Sep-21 08:00N 29°37' W 090°43'0 0.0
2017-Sep-21 07:30N 29°37' W 090°43'0 0.0
2017-Sep-21 07:00N 29°37' W 090°43'0 0.0
2017-Sep-21 06:30N 29°37' W 090°43'0 0.0
2017-Sep-21 06:00N 29°37' W 090°43'0 0.0
2017-Sep-21 05:30N 29°37' W 090°43'0 0.0
2017-Sep-21 05:00N 29°37' W 090°43'0 0.0
2017-Sep-21 04:30N 29°37' W 090°43'0 0.0
2017-Sep-21 04:00N 29°37' W 090°43'0 0.0
2017-Sep-21 03:30N 29°37' W 090°43'0 0.0
2017-Sep-21 03:00N 29°37' W 090°43'0 0.0
2017-Sep-21 02:30N 29°37' W 090°43'0 0.0
2017-Sep-21 02:00N 29°37' W 090°43'0 0.0
2017-Sep-21 01:30N 29°37' W 090°43'0 0.0
2017-Sep-21 01:00N 29°37' W 090°43'0 0.0
2017-Sep-21 00:30N 29°37' W 090°43'0 0.0
2017-Sep-21 00:00N 29°37' W 090°43'0 0.0
2017-Sep-20 23:30N 29°37' W 090°43'0 0.0
2017-Sep-20 23:00N 29°37' W 090°43'0 0.0
2017-Sep-20 22:30N 29°37' W 090°43'0 0.0
2017-Sep-20 22:00N 29°37' W 090°43'0 0.0
2017-Sep-20 21:30N 29°37' W 090°43'0 0.0
2017-Sep-20 21:00N 29°37' W 090°43'0 0.0
2017-Sep-20 20:30N 29°37' W 090°43'0 0.0
2017-Sep-20 20:00N 29°37' W 090°43'0 0.0
2017-Sep-20 19:30N 29°37' W 090°43'0 0.0
2017-Sep-20 19:00N 29°37' W 090°43'0 0.0
2017-Sep-20 18:30N 29°37' W 090°43'0 0.0
2017-Sep-20 18:00N 29°37' W 090°43'0 0.0
2017-Sep-20 17:30N 29°37' W 090°43'0 0.0
2017-Sep-20 17:00N 29°37' W 090°43'0 0.0
2017-Sep-20 16:30N 29°37' W 090°43'0 0.0
2017-Sep-20 16:00N 29°37' W 090°43'  
Track history (hours):
 
Tides and Currents Weather Stations Pressure Air Temp Water Temp Dewpoint Dewpoint Depression Visibility Wind Speed Wind Dir Waves Ship Positions

Tommy Cenac

Owner: Cenac Marine Services, LLC, Houma, LA. More information available from US FCC via Universal Licensing System and Coast Guard Vessel Documentation Center.

Last reported at 2017-Sep-30 02:00 UTC. Time now 2017-Oct-23 06:03 UTC.
Position N 32°17' W 090°57'.
Warning: this ship's position is 23 days out of date.

Length 25 m; draft 3.3 m.

Type: Ship (hazmat cat A). MMSI: 368007140.

Date/timePositionNaut miles runAvg speedWind from/ knotsBaromVisibWave heightAir tempDewpointWater temp
2017-Sep-30 02:00N 32°17' W 090°57'3 5.5
2017-Sep-30 01:30N 32°14' W 090°59'3 6.1
2017-Sep-30 01:00N 32°11' W 090°60'3 5.7
2017-Sep-30 00:29N 32°09' W 091°00'2 4.9
2017-Sep-30 00:00N 32°07' W 091°03'3 5.5
2017-Sep-29 23:29N 32°08' W 091°06'7 4.9
2017-Sep-29 22:07N 32°01' W 091°04'1 3.0
2017-Sep-29 21:55N 32°01' W 091°05'  
2017-Sep-26 14:13N 29°38' W 090°21'2 7.3
2017-Sep-26 14:00N 29°36' W 090°22'3 6.1
2017-Sep-26 13:30N 29°34' W 090°23'3 6.8
2017-Sep-26 13:00N 29°33' W 090°27'4 7.4
2017-Sep-26 12:30N 29°34' W 090°32'4 7.4
2017-Sep-26 12:00N 29°35' W 090°36'3 5.0
2017-Sep-26 11:30N 29°35' W 090°38'4 7.1
2017-Sep-26 11:00N 29°37' W 090°42'0 0.8
2017-Sep-26 10:30N 29°37' W 090°43'0 0.0
2017-Sep-26 10:00N 29°37' W 090°43'0 0.0
2017-Sep-26 09:30N 29°37' W 090°43'0 0.0
2017-Sep-26 09:00N 29°37' W 090°43'0 0.0
2017-Sep-26 08:30N 29°37' W 090°43'0 0.0
2017-Sep-26 08:00N 29°37' W 090°43'0 0.0
2017-Sep-26 07:30N 29°37' W 090°43'0 0.0
2017-Sep-26 07:00N 29°37' W 090°43'0 0.0
2017-Sep-26 06:30N 29°37' W 090°43'0 0.0
2017-Sep-26 06:00N 29°37' W 090°43'0 0.0
2017-Sep-26 05:30N 29°37' W 090°43'0 0.0
2017-Sep-26 05:00N 29°37' W 090°43'0 0.0
2017-Sep-26 04:30N 29°37' W 090°43'0 0.0
2017-Sep-26 04:00N 29°37' W 090°43'0 0.0
2017-Sep-26 03:30N 29°37' W 090°43'0 0.0
2017-Sep-26 03:00N 29°37' W 090°43'0 0.0
2017-Sep-26 02:30N 29°37' W 090°43'0 0.0
2017-Sep-26 02:00N 29°37' W 090°43'0 0.0
2017-Sep-26 01:30N 29°37' W 090°43'0 0.0
2017-Sep-26 01:00N 29°37' W 090°43'0 0.0
2017-Sep-26 00:30N 29°37' W 090°43'0 0.0
2017-Sep-26 00:00N 29°37' W 090°43'0 0.0
2017-Sep-25 23:30N 29°37' W 090°43'0 0.0
2017-Sep-25 23:00N 29°37' W 090°43'0 0.0
2017-Sep-25 22:30N 29°37' W 090°43'0 0.0
2017-Sep-25 22:00N 29°37' W 090°43'0 0.0
2017-Sep-25 21:30N 29°37' W 090°43'0 0.0
2017-Sep-25 21:00N 29°37' W 090°43'0 0.0
2017-Sep-25 20:30N 29°37' W 090°43'0 0.0
2017-Sep-25 20:00N 29°37' W 090°43'0 0.0
2017-Sep-25 19:30N 29°37' W 090°43'0 0.0
2017-Sep-25 19:00N 29°37' W 090°43'0 0.0
2017-Sep-25 18:30N 29°37' W 090°43'0 0.0
2017-Sep-25 18:00N 29°37' W 090°43'0 0.0
2017-Sep-25 17:30N 29°37' W 090°43'0 0.0
2017-Sep-25 17:00N 29°37' W 090°43'0 0.0
2017-Sep-25 16:30N 29°37' W 090°43'0 0.0
2017-Sep-25 16:00N 29°37' W 090°43'0 0.0
2017-Sep-25 15:30N 29°37' W 090°43'0 0.0
2017-Sep-25 15:00N 29°37' W 090°43'0 0.0
2017-Sep-25 14:30N 29°37' W 090°43'0 0.0
2017-Sep-25 14:00N 29°37' W 090°43'0 0.0
2017-Sep-25 13:30N 29°37' W 090°43'0 0.0
2017-Sep-25 13:00N 29°37' W 090°43'0 0.0
2017-Sep-25 12:30N 29°37' W 090°43'0 0.0
2017-Sep-25 12:00N 29°37' W 090°43'0 0.0
2017-Sep-25 11:30N 29°37' W 090°43'0 0.0
2017-Sep-25 11:00N 29°37' W 090°43'0 0.0
2017-Sep-25 10:30N 29°37' W 090°43'0 0.0
2017-Sep-25 10:00N 29°37' W 090°43'0 0.0
2017-Sep-25 09:30N 29°37' W 090°43'0 0.0
2017-Sep-25 09:00N 29°37' W 090°43'0 0.0
2017-Sep-25 08:30N 29°37' W 090°43'0 0.0
2017-Sep-25 08:00N 29°37' W 090°43'0 0.0
2017-Sep-25 07:30N 29°37' W 090°43'0 0.0
2017-Sep-25 07:00N 29°37' W 090°43'0 0.0
2017-Sep-25 06:30N 29°37' W 090°43'0 0.0
2017-Sep-25 06:00N 29°37' W 090°43'0 0.0
2017-Sep-25 05:30N 29°37' W 090°43'0 0.0
2017-Sep-25 05:00N 29°37' W 090°43'0 0.0
2017-Sep-25 04:30N 29°37' W 090°43'0 0.0
2017-Sep-25 04:00N 29°37' W 090°43'0 0.0
2017-Sep-25 03:30N 29°37' W 090°43'0 0.0
2017-Sep-25 03:00N 29°37' W 090°43'0 0.0
2017-Sep-25 02:30N 29°37' W 090°43'0 0.0
2017-Sep-25 02:00N 29°37' W 090°43'0 0.0
2017-Sep-25 01:30N 29°37' W 090°43'0 0.0
2017-Sep-25 01:00N 29°37' W 090°43'0 0.0
2017-Sep-25 00:30N 29°37' W 090°43'0 0.0
2017-Sep-25 00:00N 29°37' W 090°43'0 0.0
2017-Sep-24 23:30N 29°37' W 090°43'0 0.0
2017-Sep-24 23:00N 29°37' W 090°43'0 0.0
2017-Sep-24 22:30N 29°37' W 090°43'0 0.0
2017-Sep-24 22:00N 29°37' W 090°43'0 0.0
2017-Sep-24 21:30N 29°37' W 090°43'0 0.0
2017-Sep-24 21:00N 29°37' W 090°43'0 0.0
2017-Sep-24 20:30N 29°37' W 090°43'0 0.0
2017-Sep-24 20:00N 29°37' W 090°43'0 0.0
2017-Sep-24 19:31N 29°37' W 090°43'0 0.0
2017-Sep-24 19:00N 29°37' W 090°43'0 0.0
2017-Sep-24 18:30N 29°37' W 090°43'0 0.0
2017-Sep-24 18:00N 29°37' W 090°43'0 0.0
2017-Sep-24 17:30N 29°37' W 090°43'0 0.0
2017-Sep-24 17:00N 29°37' W 090°43'0 0.0
2017-Sep-24 16:30N 29°37' W 090°43'0 0.0
2017-Sep-24 16:00N 29°37' W 090°43'0 0.0
2017-Sep-24 15:31N 29°37' W 090°43'0 0.0
2017-Sep-24 15:00N 29°37' W 090°43'0 0.0
2017-Sep-24 14:30N 29°37' W 090°43'0 0.0
2017-Sep-24 14:00N 29°37' W 090°43'0 0.0
2017-Sep-24 13:30N 29°37' W 090°43'0 0.0
2017-Sep-24 13:00N 29°37' W 090°43'0 0.0
2017-Sep-24 12:30N 29°37' W 090°43'0 0.0
2017-Sep-24 12:00N 29°37' W 090°43'0 0.0
2017-Sep-24 11:30N 29°37' W 090°43'0 0.0
2017-Sep-24 11:00N 29°37' W 090°43'0 0.0
2017-Sep-24 10:30N 29°37' W 090°43'0 0.0
2017-Sep-24 10:00N 29°37' W 090°43'0 0.0
2017-Sep-24 09:30N 29°37' W 090°43'0 0.0
2017-Sep-24 09:00N 29°37' W 090°43'0 0.0
2017-Sep-24 08:30N 29°37' W 090°43'0 0.0
2017-Sep-24 08:00N 29°37' W 090°43'0 0.0
2017-Sep-24 07:30N 29°37' W 090°43'0 0.0
2017-Sep-24 07:00N 29°37' W 090°43'0 0.0
2017-Sep-24 06:30N 29°37' W 090°43'0 0.0
2017-Sep-24 06:00N 29°37' W 090°43'0 0.0
2017-Sep-24 05:30N 29°37' W 090°43'0 0.0
2017-Sep-24 05:00N 29°37' W 090°43'0 0.0
2017-Sep-24 04:30N 29°37' W 090°43'0 0.0
2017-Sep-24 04:00N 29°37' W 090°43'0 0.0
2017-Sep-24 03:30N 29°37' W 090°43'0 0.0
2017-Sep-24 03:00N 29°37' W 090°43'0 0.0
2017-Sep-24 02:30N 29°37' W 090°43'0 0.0
2017-Sep-24 02:00N 29°37' W 090°43'0 0.0
2017-Sep-24 01:30N 29°37' W 090°43'0 0.0
2017-Sep-24 01:00N 29°37' W 090°43'0 0.0
2017-Sep-24 00:30N 29°37' W 090°43'0 0.0
2017-Sep-24 00:00N 29°37' W 090°43'0 0.0
2017-Sep-23 23:30N 29°37' W 090°43'0 0.0
2017-Sep-23 23:00N 29°37' W 090°43'0 0.0
2017-Sep-23 22:30N 29°37' W 090°43'0 0.0
2017-Sep-23 22:00N 29°37' W 090°43'0 0.0
2017-Sep-23 21:30N 29°37' W 090°43'0 0.0
2017-Sep-23 21:00N 29°37' W 090°43'0 0.0
2017-Sep-23 20:30N 29°37' W 090°43'0 0.0
2017-Sep-23 20:00N 29°37' W 090°43'0 0.0
2017-Sep-21 21:29N 29°37' W 090°43'0 0.0
2017-Sep-21 21:00N 29°37' W 090°43'0 0.0
2017-Sep-21 20:30N 29°37' W 090°43'0 0.0
2017-Sep-21 20:00N 29°37' W 090°43'0 0.0
2017-Sep-21 19:30N 29°37' W 090°43'0 0.0
2017-Sep-21 19:00N 29°37' W 090°43'0 0.0
2017-Sep-21 18:30N 29°37' W 090°43'0 0.0
2017-Sep-21 18:00N 29°37' W 090°43'0 0.0
2017-Sep-21 17:30N 29°37' W 090°43'0 0.0
2017-Sep-21 17:00N 29°37' W 090°43'0 0.0
2017-Sep-21 16:30N 29°37' W 090°43'0 0.0
2017-Sep-21 16:00N 29°37' W 090°43'0 0.0
2017-Sep-21 15:30N 29°37' W 090°43'0 0.0
2017-Sep-21 15:00N 29°37' W 090°43'0 0.0
2017-Sep-21 14:30N 29°37' W 090°43'0 0.0
2017-Sep-21 14:00N 29°37' W 090°43'0 0.0
2017-Sep-21 13:30N 29°37' W 090°43'0 0.0
2017-Sep-21 13:00N 29°37' W 090°43'0 0.0
2017-Sep-21 12:30N 29°37' W 090°43'0 0.0
2017-Sep-21 12:00N 29°37' W 090°43'0 0.0
2017-Sep-21 11:30N 29°37' W 090°43'0 0.0
2017-Sep-21 11:00N 29°37' W 090°43'0 0.0
2017-Sep-21 10:30N 29°37' W 090°43'0 0.0
2017-Sep-21 10:00N 29°37' W 090°43'0 0.0
2017-Sep-21 09:30N 29°37' W 090°43'0 0.0
2017-Sep-21 09:00N 29°37' W 090°43'0 0.0
2017-Sep-21 08:30N 29°37' W 090°43'0 0.0
2017-Sep-21 08:00N 29°37' W 090°43'0 0.0
2017-Sep-21 07:30N 29°37' W 090°43'0 0.0
2017-Sep-21 07:00N 29°37' W 090°43'0 0.0
2017-Sep-21 06:30N 29°37' W 090°43'0 0.0
2017-Sep-21 06:00N 29°37' W 090°43'0 0.0
2017-Sep-21 05:30N 29°37' W 090°43'0 0.0
2017-Sep-21 05:00N 29°37' W 090°43'0 0.0
2017-Sep-21 04:30N 29°37' W 090°43'0 0.0
2017-Sep-21 04:00N 29°37' W 090°43'0 0.0
2017-Sep-21 03:30N 29°37' W 090°43'0 0.0
2017-Sep-21 03:00N 29°37' W 090°43'0 0.0
2017-Sep-21 02:30N 29°37' W 090°43'0 0.0
2017-Sep-21 02:00N 29°37' W 090°43'0 0.0
2017-Sep-21 01:30N 29°37' W 090°43'0 0.0
2017-Sep-21 01:00N 29°37' W 090°43'0 0.0
2017-Sep-21 00:30N 29°37' W 090°43'0 0.0
2017-Sep-21 00:00N 29°37' W 090°43'0 0.0
2017-Sep-20 23:30N 29°37' W 090°43'0 0.0
2017-Sep-20 23:00N 29°37' W 090°43'0 0.0
2017-Sep-20 22:30N 29°37' W 090°43'0 0.0
2017-Sep-20 22:00N 29°37' W 090°43'0 0.0
2017-Sep-20 21:30N 29°37' W 090°43'0 0.0
2017-Sep-20 21:00N 29°37' W 090°43'0 0.0
2017-Sep-20 20:30N 29°37' W 090°43'0 0.0
2017-Sep-20 20:00N 29°37' W 090°43'0 0.0
2017-Sep-20 19:30N 29°37' W 090°43'0 0.0
2017-Sep-20 19:00N 29°37' W 090°43'0 0.0
2017-Sep-20 18:30N 29°37' W 090°43'0 0.0
2017-Sep-20 18:00N 29°37' W 090°43'0 0.0
2017-Sep-20 17:30N 29°37' W 090°43'0 0.0
2017-Sep-20 17:00N 29°37' W 090°43'0 0.0
2017-Sep-20 16:30N 29°37' W 090°43'0 0.0
2017-Sep-20 16:00N 29°37' W 090°43'  

Dump ship's entire track history